createdAt,value
2023-05-17T00:00:10.360Z,101473.06
2023-05-17T00:02:37.324Z,101471.09
2023-05-17T00:05:04.691Z,101471.41
2023-05-17T00:07:31.167Z,101460.69
2023-05-17T00:09:57.761Z,101469.44
2023-05-17T00:12:24.277Z,101464.75
2023-05-17T00:14:50.938Z,101471.16
2023-05-17T00:17:17.481Z,101476.44
2023-05-17T00:19:43.947Z,101476.09
2023-05-17T00:22:10.380Z,101473.88
2023-05-17T00:24:36.819Z,101470.84
2023-05-17T00:27:03.351Z,101465.25
2023-05-17T00:29:29.785Z,101468.50
2023-05-17T00:31:56.231Z,101462.66
2023-05-17T00:34:22.695Z,101469.56
2023-05-17T00:36:49.654Z,101472.59
2023-05-17T00:39:16.165Z,101476.22
2023-05-17T00:41:43.368Z,101478.69
2023-05-17T00:44:09.815Z,101473.72
2023-05-17T00:46:36.297Z,101471.09
2023-05-17T00:49:03.517Z,101468.56
2023-05-17T00:51:31.228Z,101472.97
2023-05-17T00:53:57.882Z,101471.81
2023-05-17T00:56:25.234Z,101466.22
2023-05-17T00:58:53.131Z,101485.50
2023-05-17T01:01:20.229Z,101475.59
2023-05-17T01:03:47.333Z,101483.22
2023-05-17T01:06:14.552Z,101470.53
2023-05-17T01:08:41.292Z,101473.16
2023-05-17T01:11:45.365Z,101469.47
2023-05-17T01:14:27.891Z,101475.38
2023-05-17T01:16:59.457Z,101478.28
2023-05-17T01:19:57.862Z,101478.84
2023-05-17T01:22:33.701Z,101484.25
2023-05-17T01:25:28.498Z,101480.44
2023-05-17T01:28:01.048Z,101489.00
2023-05-17T01:30:29.199Z,101485.53
2023-05-17T01:33:00.590Z,101492.91
2023-05-17T01:35:27.437Z,101487.31
2023-05-17T01:37:54.362Z,101485.38
2023-05-17T01:40:21.756Z,101491.97
2023-05-17T01:42:57.776Z,101496.13
2023-05-17T01:45:51.456Z,101499.00
2023-05-17T01:48:28.434Z,101497.66
2023-05-17T01:50:58.134Z,101497.56
2023-05-17T01:53:38.053Z,101502.50
2023-05-17T01:56:16.237Z,101499.75
2023-05-17T01:58:47.472Z,101504.50
2023-05-17T02:01:16.495Z,101507.72
2023-05-17T02:03:43.056Z,101505.69
2023-05-17T02:06:09.584Z,101504.69
2023-05-17T02:08:36.395Z,101509.75
2023-05-17T02:11:02.968Z,101512.34
2023-05-17T02:13:30.745Z,101507.97
2023-05-17T02:16:00.950Z,101501.88
2023-05-17T02:18:28.019Z,101501.63
2023-05-17T02:20:54.792Z,101499.69
2023-05-17T02:23:21.530Z,101507.63
2023-05-17T02:25:48.004Z,101498.31
2023-05-17T02:28:14.439Z,101502.53
2023-05-17T02:30:40.972Z,101501.78
2023-05-17T02:33:08.164Z,101498.16
2023-05-17T02:35:34.678Z,101501.28
2023-05-17T02:38:01.143Z,101493.75
2023-05-17T02:40:27.632Z,101492.72
2023-05-17T02:42:54.080Z,101492.31
2023-05-17T02:45:20.536Z,101496.72
2023-05-17T02:47:47.020Z,101491.97
2023-05-17T02:50:13.530Z,101497.84
2023-05-17T02:52:40.056Z,101489.09
2023-05-17T02:55:07.246Z,101501.13
2023-05-17T02:57:33.727Z,101498.06
2023-05-17T03:00:00.299Z,101508.06
2023-05-17T03:02:27.623Z,101505.09
2023-05-17T03:04:54.354Z,101500.59
2023-05-17T03:07:20.894Z,101503.47
2023-05-17T03:09:47.454Z,101505.75
2023-05-17T03:12:13.934Z,101507.25
2023-05-17T03:14:41.921Z,101508.78
2023-05-17T03:17:09.361Z,101520.63
2023-05-17T03:19:35.845Z,101518.78
2023-05-17T03:22:03.327Z,101522.56
2023-05-17T03:24:32.352Z,101528.03
2023-05-17T03:26:59.850Z,101527.66
2023-05-17T03:29:26.582Z,101522.09
2023-05-17T03:31:53.112Z,101528.09
2023-05-17T03:34:19.560Z,101529.56
2023-05-17T03:36:46.020Z,101525.09
2023-05-17T03:39:12.658Z,101527.97
2023-05-17T03:41:42.065Z,101535.94
2023-05-17T03:44:08.804Z,101531.38
2023-05-17T03:46:36.109Z,101535.00
2023-05-17T03:49:03.959Z,101536.38
2023-05-17T03:51:32.221Z,101537.13
2023-05-17T03:54:01.550Z,101538.22
2023-05-17T03:56:29.762Z,101531.81
2023-05-17T03:58:56.270Z,101536.72
2023-05-17T04:01:23.095Z,101540.53
2023-05-17T04:03:49.581Z,101546.84
2023-05-17T04:06:16.080Z,101547.13
2023-05-17T04:08:42.858Z,101552.09
2023-05-17T04:11:15.324Z,101572.38
2023-05-17T04:13:43.109Z,101570.88
2023-05-17T04:16:10.619Z,101578.34
2023-05-17T04:18:41.147Z,101573.69
2023-05-17T04:21:08.804Z,101579.16
2023-05-17T04:23:36.142Z,101580.53
2023-05-17T04:26:04.834Z,101578.06
2023-05-17T04:28:36.941Z,101578.34
2023-05-17T04:31:08.137Z,101579.41
2023-05-17T04:33:35.547Z,101581.25
2023-05-17T04:36:02.555Z,101585.66
2023-05-17T04:38:30.124Z,101593.63
2023-05-17T04:41:04.621Z,101594.66
2023-05-17T04:43:34.445Z,101600.97
2023-05-17T04:46:03.123Z,101599.63
2023-05-17T04:48:32.426Z,101606.13
2023-05-17T04:51:04.305Z,101602.53
2023-05-17T04:53:31.568Z,101594.69
2023-05-17T04:55:59.078Z,101608.72
2023-05-17T04:58:26.644Z,101611.31
2023-05-17T05:00:57.533Z,101625.06
2023-05-17T05:03:24.395Z,101630.31
2023-05-17T05:05:51.477Z,101621.38
2023-05-17T05:08:18.104Z,101638.22
2023-05-17T05:10:46.345Z,101647.53
2023-05-17T05:13:14.783Z,101639.09
2023-05-17T05:15:41.909Z,101649.47
2023-05-17T05:18:08.526Z,101651.53
2023-05-17T05:20:35.149Z,101650.84
2023-05-17T05:23:05.867Z,101664.88
2023-05-17T05:25:33.219Z,101665.66
2023-05-17T05:27:59.836Z,101668.94
2023-05-17T05:30:27.514Z,101664.28
2023-05-17T05:32:55.448Z,101674.06
2023-05-17T05:35:29.151Z,101673.88
2023-05-17T05:37:57.794Z,101685.66
2023-05-17T05:40:24.771Z,101674.78
2023-05-17T05:42:52.327Z,101680.06
2023-05-17T05:45:20.165Z,101686.91
2023-05-17T05:47:47.989Z,101684.72
2023-05-17T05:50:15.083Z,101681.38
2023-05-17T05:52:43.570Z,101696.31
2023-05-17T05:55:10.217Z,101696.16
2023-05-17T05:57:36.754Z,101697.94
2023-05-17T06:00:04.924Z,101707.28
2023-05-17T06:02:39.317Z,101704.91
2023-05-17T06:05:07.788Z,101711.69
2023-05-17T06:07:34.245Z,101720.63
2023-05-17T06:10:00.701Z,101721.41
2023-05-17T06:12:27.237Z,101720.25
2023-05-17T06:14:53.719Z,101718.56
2023-05-17T06:17:21.351Z,101717.78
2023-05-17T06:19:49.271Z,101724.63
2023-05-17T06:22:16.163Z,101727.72
2023-05-17T06:24:42.664Z,101728.22
2023-05-17T06:27:09.116Z,101733.38
2023-05-17T06:29:35.577Z,101738.56
2023-05-17T06:32:02.028Z,101743.50
2023-05-17T06:34:28.501Z,101735.03
2023-05-17T06:36:55.120Z,101732.69
2023-05-17T06:39:21.568Z,101742.56
2023-05-17T06:41:48.043Z,101738.41
2023-05-17T06:44:17.039Z,101747.06
2023-05-17T06:46:43.506Z,101737.06
2023-05-17T06:49:10.093Z,101746.59
2023-05-17T06:51:36.600Z,101748.75
2023-05-17T06:54:03.077Z,101757.94
2023-05-17T06:56:29.566Z,101743.25
2023-05-17T06:58:56.011Z,101757.06
2023-05-17T07:01:22.504Z,101749.31
2023-05-17T07:03:49.329Z,101760.63
2023-05-17T07:06:19.007Z,101761.13
2023-05-17T07:08:46.153Z,101757.50
2023-05-17T07:11:12.638Z,101754.09
2023-05-17T07:13:39.242Z,101749.63
2023-05-17T07:16:07.957Z,101742.63
2023-05-17T07:18:36.704Z,101736.75
2023-05-17T07:21:03.755Z,101738.03
2023-05-17T07:23:30.227Z,101742.06
2023-05-17T07:25:56.701Z,101751.84
2023-05-17T07:28:23.146Z,101751.59
2023-05-17T07:30:49.592Z,101750.22
2023-05-17T07:33:16.388Z,101752.25
2023-05-17T07:35:42.864Z,101757.22
2023-05-17T07:38:10.752Z,101773.28
2023-05-17T07:40:37.171Z,101767.09
2023-05-17T07:43:03.628Z,101777.47
2023-05-17T07:45:30.198Z,101770.44
2023-05-17T07:47:56.981Z,101786.50
2023-05-17T07:50:23.639Z,101783.94
2023-05-17T07:52:50.109Z,101796.88
2023-05-17T07:55:25.995Z,101786.44
2023-05-17T07:57:52.578Z,101786.09
2023-05-17T08:00:19.593Z,101809.84
2023-05-17T08:02:46.545Z,101810.97
2023-05-17T08:05:13.121Z,101814.03
2023-05-17T08:07:39.593Z,101803.78
2023-05-17T08:10:06.618Z,101804.16
2023-05-17T08:12:33.153Z,101811.94
2023-05-17T08:14:59.654Z,101814.25
2023-05-17T08:17:26.204Z,101810.66
2023-05-17T08:19:52.768Z,101813.75
2023-05-17T08:22:19.359Z,101816.03
2023-05-17T08:24:46.529Z,101819.69
2023-05-17T08:27:12.984Z,101835.97
2023-05-17T08:29:39.928Z,101819.69
2023-05-17T08:32:08.061Z,101819.44
2023-05-17T08:34:34.682Z,101826.44
2023-05-17T08:37:01.270Z,101824.78
2023-05-17T08:39:27.830Z,101821.38
2023-05-17T08:41:59.340Z,101830.09
2023-05-17T08:44:28.216Z,101834.31
2023-05-17T08:46:56.539Z,101830.66
2023-05-17T08:49:25.831Z,101837.94
2023-05-17T08:51:54.400Z,101826.53
2023-05-17T08:54:21.076Z,101822.34
2023-05-17T08:56:52.143Z,101827.84
2023-05-17T08:59:21.590Z,101827.25
2023-05-17T09:01:49.739Z,101848.09
2023-05-17T09:04:16.634Z,101840.19
2023-05-17T09:06:44.669Z,101837.34
2023-05-17T09:09:11.622Z,101825.56
2023-05-17T09:11:38.717Z,101829.78
2023-05-17T09:14:06.976Z,101824.16
2023-05-17T09:16:37.661Z,101823.84
2023-05-17T09:19:06.063Z,101821.13
2023-05-17T09:21:33.979Z,101815.66
2023-05-17T09:24:08.030Z,101816.06
2023-05-17T09:26:43.312Z,101816.47
2023-05-17T09:29:10.575Z,101829.25
2023-05-17T09:31:37.228Z,101834.06
2023-05-17T09:34:03.785Z,101823.94
2023-05-17T09:36:30.452Z,101812.78
2023-05-17T09:39:02.135Z,101828.44
2023-05-17T09:41:32.025Z,101823.91
2023-05-17T09:44:02.464Z,101827.44
2023-05-17T09:46:49.181Z,101826.81
2023-05-17T09:49:16.993Z,101825.28
2023-05-17T09:51:45.068Z,101820.72
2023-05-17T09:54:12.149Z,101824.75
2023-05-17T09:56:39.367Z,101832.25
2023-05-17T09:59:12.865Z,101827.06
2023-05-17T10:01:41.605Z,101830.22
2023-05-17T10:04:12.248Z,101824.97
2023-05-17T10:06:46.508Z,101846.97
2023-05-17T10:09:15.763Z,101833.41
2023-05-17T10:11:46.563Z,101828.88
2023-05-17T10:14:29.037Z,101838.06
2023-05-17T10:16:56.301Z,101826.53
2023-05-17T10:19:24.558Z,101842.00
2023-05-17T10:21:52.346Z,101839.63
2023-05-17T10:24:21.584Z,101831.81
2023-05-17T10:26:50.455Z,101827.13
2023-05-17T10:29:17.091Z,101825.75
2023-05-17T10:31:43.584Z,101828.91
2023-05-17T10:34:11.624Z,101830.50
2023-05-17T10:36:39.046Z,101833.09
2023-05-17T10:39:09.415Z,101833.91
2023-05-17T10:41:38.320Z,101838.78
2023-05-17T10:44:07.992Z,101830.34
2023-05-17T10:46:34.623Z,101841.72
2023-05-17T10:49:01.481Z,101844.69
2023-05-17T10:51:34.490Z,101860.16
2023-05-17T10:54:07.486Z,101851.66
2023-05-17T10:56:34.710Z,101845.16
2023-05-17T10:59:21.888Z,101858.81
2023-05-17T11:02:03.455Z,101843.50
2023-05-17T11:04:38.329Z,101842.13
2023-05-17T11:07:17.322Z,101847.84
2023-05-17T11:09:45.048Z,101843.22
2023-05-17T11:12:13.374Z,101845.81
2023-05-17T11:14:46.378Z,101848.41
2023-05-17T11:17:21.154Z,101851.28
2023-05-17T11:19:59.848Z,101849.03
2023-05-17T11:22:27.602Z,101856.34
2023-05-17T11:24:57.406Z,101848.22
2023-05-17T11:27:30.825Z,101857.56
2023-05-17T11:29:58.775Z,101854.63
2023-05-17T11:32:32.528Z,101850.34
2023-05-17T11:35:02.344Z,101843.31
2023-05-17T11:37:29.932Z,101835.59
2023-05-17T11:40:04.605Z,101839.63
2023-05-17T11:42:31.254Z,101844.75
2023-05-17T11:45:00.371Z,101844.31
2023-05-17T11:47:27.208Z,101844.44
2023-05-17T11:50:01.219Z,101850.19
2023-05-17T11:52:29.410Z,101845.50
2023-05-17T11:54:58.433Z,101834.00
2023-05-17T11:57:31.862Z,101841.38
2023-05-17T12:00:00.386Z,101847.63
2023-05-17T12:02:31.164Z,101841.97
2023-05-17T12:04:57.602Z,101846.38
2023-05-17T12:07:25.755Z,101842.41
2023-05-17T12:09:52.758Z,101843.41
2023-05-17T12:12:21.963Z,101837.84
2023-05-17T12:14:48.712Z,101851.38
2023-05-17T12:17:29.901Z,101840.88
2023-05-17T12:20:06.978Z,101841.66
2023-05-17T12:22:33.676Z,101846.09
2023-05-17T12:25:00.304Z,101853.00
2023-05-17T12:27:27.307Z,101852.50
2023-05-17T12:29:54.294Z,101855.28
2023-05-17T12:32:21.352Z,101851.81
2023-05-17T12:34:49.482Z,101843.09
2023-05-17T12:37:16.394Z,101833.34
2023-05-17T12:39:43.527Z,101845.13
2023-05-17T12:42:10.438Z,101852.97
2023-05-17T12:44:37.055Z,101852.44
2023-05-17T12:47:03.705Z,101842.03
2023-05-17T12:49:30.360Z,101834.91
2023-05-17T12:52:02.944Z,101834.81
2023-05-17T12:54:29.878Z,101851.28
2023-05-17T12:56:57.198Z,101839.94
2023-05-17T12:59:25.889Z,101848.44
2023-05-17T13:01:57.505Z,101830.91
2023-05-17T13:04:32.811Z,101841.00
2023-05-17T13:07:01.680Z,101838.03
2023-05-17T13:09:30.979Z,101846.53
2023-05-17T13:11:59.899Z,101851.00
2023-05-17T13:14:47.448Z,101840.16
2023-05-17T13:17:36.494Z,101844.78
2023-05-17T13:20:04.038Z,101839.63
2023-05-17T13:22:31.891Z,101841.88
2023-05-17T13:24:58.349Z,101851.81
2023-05-17T13:27:24.809Z,101850.03
2023-05-17T13:29:51.298Z,101862.44
2023-05-17T13:32:17.794Z,101847.47
2023-05-17T13:34:44.260Z,101847.38
2023-05-17T13:37:12.349Z,101837.78
2023-05-17T13:39:41.017Z,101848.00
2023-05-17T13:42:07.869Z,101847.34
2023-05-17T13:44:34.353Z,101855.63
2023-05-17T13:47:00.915Z,101858.72
2023-05-17T13:49:28.441Z,101849.53
2023-05-17T13:51:54.922Z,101861.22
2023-05-17T13:54:23.994Z,101858.41
2023-05-17T13:56:50.460Z,101853.72
2023-05-17T13:59:16.952Z,101854.72
2023-05-17T14:01:43.832Z,101838.13
2023-05-17T14:04:10.378Z,101862.81
2023-05-17T14:06:36.908Z,101850.66
2023-05-17T14:09:04.041Z,101863.03
2023-05-17T14:11:30.486Z,101858.22
2023-05-17T14:13:56.954Z,101850.03
2023-05-17T14:16:23.413Z,101849.19
2023-05-17T14:18:50.062Z,101856.03
2023-05-17T14:21:16.731Z,101862.13
2023-05-17T14:23:43.200Z,101866.53
2023-05-17T14:26:09.909Z,101871.25
2023-05-17T14:28:38.167Z,101873.47
2023-05-17T14:31:09.258Z,101858.53
2023-05-17T14:33:35.843Z,101873.31
2023-05-17T14:36:03.609Z,101865.91
2023-05-17T14:38:30.245Z,101876.31
2023-05-17T14:40:58.014Z,101877.34
2023-05-17T14:43:24.827Z,101882.72
2023-05-17T14:45:51.275Z,101869.38
2023-05-17T14:48:17.823Z,101875.16
2023-05-17T14:50:44.381Z,101881.84
2023-05-17T14:53:10.944Z,101881.84
2023-05-17T14:55:37.919Z,101888.69
2023-05-17T14:58:04.403Z,101881.25
2023-05-17T15:00:30.865Z,101888.16
2023-05-17T15:02:57.984Z,101888.91
2023-05-17T15:05:25.054Z,101896.78
2023-05-17T15:07:52.846Z,101897.31
2023-05-17T15:10:19.492Z,101896.91
2023-05-17T15:12:45.976Z,101887.03
2023-05-17T15:15:12.520Z,101887.00
2023-05-17T15:17:38.993Z,101889.53
2023-05-17T15:20:07.410Z,101894.38
2023-05-17T15:22:34.026Z,101898.47
2023-05-17T15:25:00.558Z,101895.94
2023-05-17T15:27:27.017Z,101901.22
2023-05-17T15:29:53.459Z,101910.56
2023-05-17T15:32:19.902Z,101902.25
2023-05-17T15:34:46.736Z,101911.69
2023-05-17T15:37:13.233Z,101912.84
2023-05-17T15:39:39.698Z,101920.19
2023-05-17T15:42:06.165Z,101914.53
2023-05-17T15:44:32.686Z,101910.41
2023-05-17T15:47:01.446Z,101916.63
2023-05-17T15:49:29.546Z,101917.88
2023-05-17T15:51:56.295Z,101922.19
2023-05-17T15:54:22.721Z,101918.97
2023-05-17T15:56:49.172Z,101922.16
2023-05-17T15:59:16.040Z,101923.84
2023-05-17T16:01:46.003Z,101935.06
2023-05-17T16:04:13.493Z,101929.94
2023-05-17T16:06:40.234Z,101924.22
2023-05-17T16:09:06.827Z,101927.78
2023-05-17T16:11:33.423Z,101924.31
2023-05-17T16:13:59.893Z,101923.25
2023-05-17T16:16:26.345Z,101920.25
2023-05-17T16:18:52.887Z,101932.41
2023-05-17T16:21:19.987Z,101935.06
2023-05-17T16:23:46.571Z,101935.84
2023-05-17T16:26:13.221Z,101936.56
2023-05-17T16:28:39.713Z,101941.91
2023-05-17T16:31:06.527Z,101925.53
2023-05-17T16:33:33.044Z,101942.41
2023-05-17T16:35:59.534Z,101934.53
2023-05-17T16:38:26.258Z,101939.16
2023-05-17T16:40:52.724Z,101938.19
2023-05-17T16:43:19.268Z,101940.13
2023-05-17T16:45:46.340Z,101942.50
2023-05-17T16:48:14.158Z,101948.69
2023-05-17T16:50:41.656Z,101945.94
2023-05-17T16:53:08.178Z,101955.28
2023-05-17T16:55:36.067Z,101953.81
2023-05-17T16:58:02.573Z,101957.72
2023-05-17T17:00:29.942Z,101964.16
2023-05-17T17:02:58.262Z,101965.50
2023-05-17T17:05:24.918Z,101959.47
2023-05-17T17:07:51.497Z,101964.47
2023-05-17T17:10:18.060Z,101959.25
2023-05-17T17:12:44.535Z,101955.94
2023-05-17T17:15:11.384Z,101962.81
2023-05-17T17:17:37.881Z,101956.22
2023-05-17T17:20:05.703Z,101957.03
2023-05-17T17:22:32.326Z,101952.44
2023-05-17T17:24:58.786Z,101960.81
2023-05-17T17:27:25.229Z,101953.63
2023-05-17T17:29:51.686Z,101950.59
2023-05-17T17:32:18.198Z,101954.66
2023-05-17T17:34:45.767Z,101975.38
2023-05-17T17:37:12.227Z,101968.69
2023-05-17T17:39:38.690Z,101970.63
2023-05-17T17:42:05.366Z,101968.22
2023-05-17T17:44:31.823Z,101971.31
2023-05-17T17:46:58.356Z,101974.19
2023-05-17T17:49:24.876Z,101969.66
2023-05-17T17:51:51.633Z,101973.41
2023-05-17T17:54:18.093Z,101977.09
2023-05-17T17:56:45.482Z,101978.22
2023-05-17T17:59:12.412Z,101972.38
2023-05-17T18:01:39.288Z,101980.25
2023-05-17T18:04:06.054Z,101975.56
2023-05-17T18:06:32.545Z,101975.09
2023-05-17T18:08:59.475Z,101984.41
2023-05-17T18:11:26.186Z,101980.66
2023-05-17T18:13:52.635Z,101983.91
2023-05-17T18:16:19.136Z,101985.06
2023-05-17T18:18:46.853Z,101994.66
2023-05-17T18:21:13.313Z,101990.44
2023-05-17T18:23:39.815Z,101997.75
2023-05-17T18:26:06.737Z,102005.09
2023-05-17T18:28:41.800Z,102011.31
2023-05-17T18:31:09.502Z,102009.09
2023-05-17T18:33:36.008Z,102010.78
2023-05-17T18:36:02.532Z,102010.25
2023-05-17T18:38:29.019Z,102026.03
2023-05-17T18:40:55.848Z,102019.81
2023-05-17T18:43:22.309Z,102016.47
2023-05-17T18:45:48.769Z,102027.19
2023-05-17T18:48:15.316Z,102030.59
2023-05-17T18:50:41.831Z,102027.50
2023-05-17T18:53:08.305Z,102042.16
2023-05-17T18:55:34.893Z,102038.22
2023-05-17T18:58:01.414Z,102045.25
2023-05-17T19:00:28.771Z,102042.44
2023-05-17T19:02:55.501Z,102041.03
2023-05-17T19:05:22.100Z,102046.38
2023-05-17T19:07:48.575Z,102061.00
2023-05-17T19:10:15.016Z,102068.28
2023-05-17T19:12:44.719Z,102068.84
2023-05-17T19:15:12.006Z,102076.69
2023-05-17T19:17:38.567Z,102075.25
2023-05-17T19:20:05.604Z,102085.91
2023-05-17T19:22:32.124Z,102075.50
2023-05-17T19:24:58.562Z,102081.66
2023-05-17T19:27:25.049Z,102083.91
2023-05-17T19:29:51.682Z,102079.97
2023-05-17T19:32:19.829Z,102086.88
2023-05-17T19:34:46.395Z,102101.13
2023-05-17T19:37:12.918Z,102101.66
2023-05-17T19:39:39.416Z,102105.47
2023-05-17T19:42:06.288Z,102107.69
2023-05-17T19:44:32.796Z,102114.38
2023-05-17T19:46:59.265Z,102109.03
2023-05-17T19:49:26.007Z,102119.88
2023-05-17T19:51:54.029Z,102119.84
2023-05-17T19:54:21.762Z,102124.28
2023-05-17T19:56:48.204Z,102123.63
2023-05-17T19:59:14.698Z,102132.00
2023-05-17T20:01:41.160Z,102131.41
2023-05-17T20:04:07.886Z,102137.19
2023-05-17T20:06:34.491Z,102146.63
2023-05-17T20:09:00.957Z,102141.44
2023-05-17T20:11:27.506Z,102148.91
2023-05-17T20:13:53.965Z,102154.88
2023-05-17T20:16:20.543Z,102154.88
2023-05-17T20:18:47.532Z,102161.22
2023-05-17T20:21:19.435Z,102163.44
2023-05-17T20:23:46.538Z,102162.19
2023-05-17T20:26:17.081Z,102156.25
2023-05-17T20:28:44.656Z,102156.81
2023-05-17T20:31:11.249Z,102164.69
2023-05-17T20:33:37.708Z,102171.31
2023-05-17T20:36:04.262Z,102166.81
2023-05-17T20:38:30.756Z,102175.06
2023-05-17T20:40:58.277Z,102170.06
2023-05-17T20:43:28.757Z,102178.63
2023-05-17T20:45:55.448Z,102180.16
2023-05-17T20:48:21.939Z,102185.44
2023-05-17T20:50:49.005Z,102191.22
2023-05-17T20:53:15.631Z,102184.63
2023-05-17T20:55:44.387Z,102188.59
2023-05-17T20:58:11.285Z,102191.19
2023-05-17T21:00:38.308Z,102184.91
2023-05-17T21:03:05.018Z,102185.34
2023-05-17T21:05:35.992Z,102188.91
2023-05-17T21:08:02.845Z,102188.56
2023-05-17T21:10:29.589Z,102186.47
2023-05-17T21:12:56.188Z,102186.94
2023-05-17T21:15:22.811Z,102195.63
2023-05-17T21:17:49.386Z,102187.47
2023-05-17T21:20:16.134Z,102189.97
2023-05-17T21:22:42.641Z,102189.97
2023-05-17T21:25:09.549Z,102190.78
2023-05-17T21:27:36.001Z,102193.25
2023-05-17T21:30:02.472Z,102198.97
2023-05-17T21:32:28.982Z,102204.41
2023-05-17T21:34:55.601Z,102195.31
2023-05-17T21:37:22.046Z,102201.78
2023-05-17T21:39:48.501Z,102197.16
2023-05-17T21:42:14.998Z,102202.25
2023-05-17T21:44:41.471Z,102197.75
2023-05-17T21:47:08.133Z,102205.56
2023-05-17T21:49:34.727Z,102208.34
2023-05-17T21:52:01.285Z,102200.22
2023-05-17T21:54:27.773Z,102198.13
2023-05-17T21:56:54.245Z,102188.16
2023-05-17T21:59:20.712Z,102198.63
2023-05-17T22:01:47.323Z,102197.88
2023-05-17T22:04:13.864Z,102195.84
2023-05-17T22:06:40.370Z,102194.59
2023-05-17T22:09:07.289Z,102204.44
2023-05-17T22:11:38.133Z,102200.91
2023-05-17T22:14:08.072Z,102205.66
2023-05-17T22:16:35.864Z,102206.00
2023-05-17T22:19:02.422Z,102196.91
2023-05-17T22:21:29.607Z,102199.81
2023-05-17T22:23:56.592Z,102202.34
2023-05-17T22:26:23.189Z,102206.59
2023-05-17T22:28:51.989Z,102209.63
2023-05-17T22:31:19.742Z,102212.50
2023-05-17T22:33:46.375Z,102208.63
2023-05-17T22:36:13.952Z,102221.31
2023-05-17T22:38:42.625Z,102214.25
2023-05-17T22:41:10.031Z,102226.53
2023-05-17T22:43:36.629Z,102226.06
2023-05-17T22:46:03.229Z,102223.47
2023-05-17T22:48:30.462Z,102225.16
2023-05-17T22:50:58.812Z,102223.88
2023-05-17T22:53:25.547Z,102231.16
2023-05-17T22:55:52.039Z,102229.13
2023-05-17T22:58:18.529Z,102229.72
2023-05-17T23:00:45.050Z,102235.19
2023-05-17T23:03:11.987Z,102237.56
2023-05-17T23:05:38.464Z,102235.88
2023-05-17T23:08:07.856Z,102244.47
2023-05-17T23:10:34.364Z,102241.31
2023-05-17T23:13:00.831Z,102241.69
2023-05-17T23:15:28.480Z,102247.25
2023-05-17T23:17:55.036Z,102248.22
2023-05-17T23:20:23.500Z,102244.22
2023-05-17T23:22:51.757Z,102245.56
2023-05-17T23:25:18.204Z,102243.75
2023-05-17T23:27:44.659Z,102237.06
2023-05-17T23:30:11.452Z,102241.28
2023-05-17T23:32:37.972Z,102241.13
2023-05-17T23:35:04.970Z,102243.09
2023-05-17T23:37:35.356Z,102243.94
2023-05-17T23:40:02.477Z,102244.25
2023-05-17T23:42:31.948Z,102250.53
2023-05-17T23:44:59.089Z,102252.25
2023-05-17T23:47:25.691Z,102245.19
2023-05-17T23:49:52.731Z,102250.63
2023-05-17T23:52:19.229Z,102251.09
2023-05-17T23:54:46.688Z,102256.91
2023-05-17T23:57:13.616Z,102256.69
2023-05-17T23:59:40.066Z,102258.84
